Terminal Aerodrome Forecast
Issued by NWS Sterling, VA

Current Version | Previous Version | Graphics & Text | Print | Product List | Glossary On
Versions: 1 2 3 4 5 6 7 8 9 10 11 12 13 14 15 16 17
000
FTUS41 KLWX 231500 AAA
TAFMRB
TAF AMD
KMRB 231510Z 2315/2412 VRB03KT P6SM SCT250
     FM231900 17006KT P6SM BKN035
     FM232100 16006KT P6SM SCT010 OVC025
     FM232300 15006KT 5SM -FZRAPLSN BKN012 OVC025
     FM240200 15004KT 4SM -FZRASNPL BR BKN008 OVC020
     FM240500 VRB03KT 1SM -SNPL BR BKN003 OVC020
     FM240800 00000KT 2SM -FZRA BR OVC003=

USA.gov is the U.S. government's official web portal to all federal, state and local government web resources and services.